Yang Li Hu — BOGE — position and weather

sailwx.info

Track history (hours):
 
Tides and Currents Weather Stations Pressure Air Temp Water Temp Dewpoint Dewpoint Depression Visibility Wind Speed Wind Dir Waves Ship Positions

Yang Li Hu

Last reported at 2015-Sep-02 16:04 UTC. Time now 2015-Sep-02 19:05 UTC.
Position N 33°12' E 026°24'.

Length 244 m; draft 13.8 m.

Type: Tanker. MMSI: 413975000.

Date/timePositionNaut miles runAvg speedWind from/ knotsBaromVisibWave heightAir tempDewpointWater temp
2015-Sep-02 16:04N 33°12' E 026°24'12014.1
2015-Sep-02 07:32N 32°37' E 028°41'1414.6
2015-Sep-02 06:33N 32°33' E 028°57'1514.8
2015-Sep-02 05:33N 32°28' E 029°14'1514.8
2015-Sep-02 04:33N 32°24' E 029°31'1514.8
2015-Sep-02 03:30N 32°19' E 029°48'1414.8
2015-Sep-02 02:33N 32°15' E 030°04'3014.8
2015-Sep-02 00:33N 32°07' E 030°38'1514.9
2015-Sep-01 23:32N 32°04' E 030°55'1714.5
2015-Sep-01 22:21N 32°00' E 031°15'1814.4
2015-Sep-01 21:05N 31°53' E 031°35'814.4
2015-Sep-01 20:33N 31°50' E 031°43'2913.2
2015-Sep-01 18:22N 31°34' E 032°11'1010.8
2015-Sep-01 17:28N 31°29' E 032°21'9 9.8
2015-Sep-01 16:33N 31°20' E 032°23'1010.1
2015-Sep-01 15:34N 31°10' E 032°20'9 9.2
2015-Sep-01 14:33N 31°01' E 032°19'  
Track history (hours):
 
Tides and Currents Weather Stations Pressure Air Temp Water Temp Dewpoint Dewpoint Depression Visibility Wind Speed Wind Dir Waves Ship Positions

Yang Li Hu

Last reported at 2015-Sep-02 16:04 UTC. Time now 2015-Sep-02 19:05 UTC.
Position N 33°12' E 026°24'.

Length 244 m; draft 13.8 m.

Type: Tanker. MMSI: 413975000.

Date/timePositionNaut miles runAvg speedWind from/ knotsBaromVisibWave heightAir tempDewpointWater temp
2015-Sep-02 16:04N 33°12' E 026°24'12014.1
2015-Sep-02 07:32N 32°37' E 028°41'1414.6
2015-Sep-02 06:33N 32°33' E 028°57'1514.8
2015-Sep-02 05:33N 32°28' E 029°14'1514.8
2015-Sep-02 04:33N 32°24' E 029°31'1514.8
2015-Sep-02 03:30N 32°19' E 029°48'1414.8
2015-Sep-02 02:33N 32°15' E 030°04'3014.8
2015-Sep-02 00:33N 32°07' E 030°38'1514.9
2015-Sep-01 23:32N 32°04' E 030°55'1714.5
2015-Sep-01 22:21N 32°00' E 031°15'1814.4
2015-Sep-01 21:05N 31°53' E 031°35'814.4
2015-Sep-01 20:33N 31°50' E 031°43'2913.2
2015-Sep-01 18:22N 31°34' E 032°11'1010.8
2015-Sep-01 17:28N 31°29' E 032°21'9 9.8
2015-Sep-01 16:33N 31°20' E 032°23'1010.1
2015-Sep-01 15:34N 31°10' E 032°20'9 9.2
2015-Sep-01 14:33N 31°01' E 032°19'  

Dump ship's entire track history